sensor_id;sensor_type;location;lat;lon;timestamp;P1;durP1;ratioP1;P2;durP2;ratioP2
33246;SDS011;19606;50.108;19.804;2022-10-16T00:02:00;29.77;;;20.83;;
33246;SDS011;19606;50.108;19.804;2022-10-16T00:04:26;29.80;;;21.45;;
33246;SDS011;19606;50.108;19.804;2022-10-16T00:06:52;29.27;;;20.58;;
33246;SDS011;19606;50.108;19.804;2022-10-16T00:09:18;31.83;;;20.25;;
33246;SDS011;19606;50.108;19.804;2022-10-16T00:11:44;28.35;;;20.23;;
33246;SDS011;19606;50.108;19.804;2022-10-16T00:14:12;25.73;;;20.10;;
33246;SDS011;19606;50.108;19.804;2022-10-16T00:16:38;27.63;;;18.23;;
33246;SDS011;19606;50.108;19.804;2022-10-16T00:19:05;33.03;;;20.77;;
33246;SDS011;19606;50.108;19.804;2022-10-16T00:21:32;30.60;;;20.02;;
33246;SDS011;19606;50.108;19.804;2022-10-16T00:23:59;32.63;;;20.10;;
33246;SDS011;19606;50.108;19.804;2022-10-16T00:26:26;31.23;;;20.35;;
33246;SDS011;19606;50.108;19.804;2022-10-16T00:28:53;28.75;;;20.70;;
33246;SDS011;19606;50.108;19.804;2022-10-16T00:31:20;31.80;;;19.55;;
33246;SDS011;19606;50.108;19.804;2022-10-16T00:33:46;28.85;;;19.10;;
33246;SDS011;19606;50.108;19.804;2022-10-16T00:36:14;30.83;;;19.75;;
33246;SDS011;19606;50.108;19.804;2022-10-16T00:38:40;26.20;;;19.08;;
33246;SDS011;19606;50.108;19.804;2022-10-16T00:41:07;25.92;;;18.90;;
33246;SDS011;19606;50.108;19.804;2022-10-16T00:43:37;27.95;;;19.25;;
33246;SDS011;19606;50.108;19.804;2022-10-16T00:46:15;33.33;;;19.70;;
33246;SDS011;19606;50.108;19.804;2022-10-16T00:48:42;27.15;;;18.55;;
33246;SDS011;19606;50.108;19.804;2022-10-16T00:51:08;25.65;;;18.40;;
33246;SDS011;19606;50.108;19.804;2022-10-16T00:53:34;28.17;;;20.88;;
33246;SDS011;19606;50.108;19.804;2022-10-16T00:56:01;27.13;;;16.98;;
33246;SDS011;19606;50.108;19.804;2022-10-16T00:58:27;27.98;;;19.23;;
33246;SDS011;19606;50.108;19.804;2022-10-16T01:00:53;30.25;;;18.75;;
33246;SDS011;19606;50.108;19.804;2022-10-16T01:03:52;28.70;;;19.65;;
33246;SDS011;19606;50.108;19.804;2022-10-16T01:08:44;34.38;;;21.15;;
33246;SDS011;19606;50.108;19.804;2022-10-16T01:13:48;25.02;;;18.10;;
33246;SDS011;19606;50.108;19.804;2022-10-16T01:16:19;29.77;;;19.95;;
33246;SDS011;19606;50.108;19.804;2022-10-16T01:18:47;28.53;;;20.00;;
33246;SDS011;19606;50.108;19.804;2022-10-16T01:21:17;30.13;;;20.65;;
33246;SDS011;19606;50.108;19.804;2022-10-16T01:31:17;28.25;;;18.73;;
33246;SDS011;19606;50.108;19.804;2022-10-16T01:33:45;27.58;;;18.85;;
33246;SDS011;19606;50.108;19.804;2022-10-16T01:36:14;26.75;;;20.65;;
33246;SDS011;19606;50.108;19.804;2022-10-16T01:38:41;31.20;;;21.00;;
33246;SDS011;19606;50.108;19.804;2022-10-16T01:41:13;30.77;;;21.80;;
33246;SDS011;19606;50.108;19.804;2022-10-16T01:43:43;28.70;;;21.42;;
33246;SDS011;19606;50.108;19.804;2022-10-16T01:46:10;32.90;;;21.88;;
33246;SDS011;19606;50.108;19.804;2022-10-16T01:48:38;30.15;;;21.75;;
33246;SDS011;19606;50.108;19.804;2022-10-16T01:51:08;33.05;;;23.38;;
33246;SDS011;19606;50.108;19.804;2022-10-16T01:53:36;36.65;;;24.83;;
33246;SDS011;19606;50.108;19.804;2022-10-16T01:56:03;37.65;;;25.45;;
33246;SDS011;19606;50.108;19.804;2022-10-16T01:58:32;42.25;;;26.88;;
33246;SDS011;19606;50.108;19.804;2022-10-16T02:00:59;41.67;;;28.40;;
33246;SDS011;19606;50.108;19.804;2022-10-16T02:03:27;40.33;;;27.15;;
33246;SDS011;19606;50.108;19.804;2022-10-16T02:05:54;37.70;;;26.05;;
33246;SDS011;19606;50.108;19.804;2022-10-16T02:08:21;43.85;;;28.13;;
33246;SDS011;19606;50.108;19.804;2022-10-16T02:10:48;39.15;;;25.85;;
33246;SDS011;19606;50.108;19.804;2022-10-16T02:13:17;35.75;;;25.23;;
33246;SDS011;19606;50.108;19.804;2022-10-16T02:15:44;47.83;;;26.00;;
33246;SDS011;19606;50.108;19.804;2022-10-16T02:18:10;38.40;;;25.40;;
33246;SDS011;19606;50.108;19.804;2022-10-16T02:20:43;37.90;;;24.65;;
33246;SDS011;19606;50.108;19.804;2022-10-16T02:23:16;34.58;;;25.25;;
33246;SDS011;19606;50.108;19.804;2022-10-16T02:25:43;37.65;;;24.25;;
33246;SDS011;19606;50.108;19.804;2022-10-16T02:30:39;38.65;;;25.83;;
33246;SDS011;19606;50.108;19.804;2022-10-16T02:33:08;38.25;;;25.23;;
33246;SDS011;19606;50.108;19.804;2022-10-16T02:35:35;34.25;;;24.40;;
33246;SDS011;19606;50.108;19.804;2022-10-16T02:38:01;35.88;;;23.08;;
33246;SDS011;19606;50.108;19.804;2022-10-16T02:40:28;30.88;;;22.83;;
33246;SDS011;19606;50.108;19.804;2022-10-16T02:42:54;33.85;;;23.00;;
33246;SDS011;19606;50.108;19.804;2022-10-16T02:45:21;35.28;;;23.40;;
33246;SDS011;19606;50.108;19.804;2022-10-16T02:47:48;34.95;;;23.15;;
33246;SDS011;19606;50.108;19.804;2022-10-16T02:50:14;33.95;;;22.67;;
33246;SDS011;19606;50.108;19.804;2022-10-16T02:52:40;34.60;;;21.67;;
33246;SDS011;19606;50.108;19.804;2022-10-16T02:55:06;34.40;;;23.10;;
33246;SDS011;19606;50.108;19.804;2022-10-16T02:57:32;34.08;;;24.58;;
33246;SDS011;19606;50.108;19.804;2022-10-16T02:59:58;37.80;;;24.95;;
33246;SDS011;19606;50.108;19.804;2022-10-16T03:02:25;36.67;;;20.65;;
33246;SDS011;19606;50.108;19.804;2022-10-16T03:04:51;36.47;;;23.33;;
33246;SDS011;19606;50.108;19.804;2022-10-16T03:07:16;34.75;;;22.20;;
33246;SDS011;19606;50.108;19.804;2022-10-16T03:09:42;36.88;;;22.10;;
33246;SDS011;19606;50.108;19.804;2022-10-16T03:12:09;32.80;;;22.98;;
33246;SDS011;19606;50.108;19.804;2022-10-16T03:14:36;36.72;;;22.77;;
33246;SDS011;19606;50.108;19.804;2022-10-16T03:17:05;37.33;;;23.02;;
33246;SDS011;19606;50.108;19.804;2022-10-16T03:19:31;33.50;;;22.52;;
33246;SDS011;19606;50.108;19.804;2022-10-16T03:21:57;35.17;;;22.20;;
33246;SDS011;19606;50.108;19.804;2022-10-16T03:24:23;38.13;;;21.27;;
33246;SDS011;19606;50.108;19.804;2022-10-16T03:26:49;33.17;;;19.77;;
33246;SDS011;19606;50.108;19.804;2022-10-16T03:29:15;28.17;;;19.33;;
33246;SDS011;19606;50.108;19.804;2022-10-16T03:31:41;32.08;;;19.63;;
33246;SDS011;19606;50.108;19.804;2022-10-16T03:34:07;32.03;;;20.98;;
33246;SDS011;19606;50.108;19.804;2022-10-16T03:36:33;40.22;;;23.27;;
33246;SDS011;19606;50.108;19.804;2022-10-16T03:38:59;40.45;;;22.20;;
33246;SDS011;19606;50.108;19.804;2022-10-16T03:41:25;34.75;;;23.48;;
33246;SDS011;19606;50.108;19.804;2022-10-16T03:43:51;45.40;;;23.90;;
33246;SDS011;19606;50.108;19.804;2022-10-16T03:46:17;42.28;;;25.60;;
33246;SDS011;19606;50.108;19.804;2022-10-16T03:48:43;36.22;;;23.85;;
33246;SDS011;19606;50.108;19.804;2022-10-16T03:51:09;44.28;;;25.27;;
33246;SDS011;19606;50.108;19.804;2022-10-16T03:53:35;39.50;;;23.67;;
33246;SDS011;19606;50.108;19.804;2022-10-16T03:56:01;37.20;;;24.23;;
33246;SDS011;19606;50.108;19.804;2022-10-16T03:58:27;36.60;;;23.48;;
33246;SDS011;19606;50.108;19.804;2022-10-16T04:00:53;35.80;;;23.23;;
33246;SDS011;19606;50.108;19.804;2022-10-16T04:03:19;34.30;;;21.05;;
33246;SDS011;19606;50.108;19.804;2022-10-16T04:05:46;37.50;;;22.38;;
33246;SDS011;19606;50.108;19.804;2022-10-16T04:08:12;39.00;;;23.58;;
33246;SDS011;19606;50.108;19.804;2022-10-16T04:10:38;41.75;;;21.85;;
33246;SDS011;19606;50.108;19.804;2022-10-16T04:13:04;43.47;;;24.13;;
33246;SDS011;19606;50.108;19.804;2022-10-16T04:15:30;39.95;;;22.67;;
33246;SDS011;19606;50.108;19.804;2022-10-16T04:17:57;36.47;;;22.70;;
33246;SDS011;19606;50.108;19.804;2022-10-16T04:20:23;37.20;;;21.63;;
33246;SDS011;19606;50.108;19.804;2022-10-16T04:22:49;41.90;;;22.70;;
33246;SDS011;19606;50.108;19.804;2022-10-16T04:25:15;41.38;;;23.08;;
33246;SDS011;19606;50.108;19.804;2022-10-16T04:27:41;37.50;;;23.42;;
33246;SDS011;19606;50.108;19.804;2022-10-16T04:30:07;39.90;;;24.45;;
33246;SDS011;19606;50.108;19.804;2022-10-16T04:32:33;42.65;;;25.55;;
33246;SDS011;19606;50.108;19.804;2022-10-16T04:34:59;39.85;;;23.42;;
33246;SDS011;19606;50.108;19.804;2022-10-16T04:37:25;38.22;;;23.27;;
33246;SDS011;19606;50.108;19.804;2022-10-16T04:39:52;33.17;;;21.10;;
33246;SDS011;19606;50.108;19.804;2022-10-16T04:42:18;39.97;;;21.95;;
33246;SDS011;19606;50.108;19.804;2022-10-16T04:44:44;37.17;;;22.80;;
33246;SDS011;19606;50.108;19.804;2022-10-16T04:47:10;37.08;;;22.50;;
33246;SDS011;19606;50.108;19.804;2022-10-16T04:49:36;30.42;;;20.17;;
33246;SDS011;19606;50.108;19.804;2022-10-16T04:52:02;34.78;;;22.73;;
33246;SDS011;19606;50.108;19.804;2022-10-16T04:54:28;40.13;;;24.33;;
33246;SDS011;19606;50.108;19.804;2022-10-16T04:56:54;42.63;;;23.13;;
33246;SDS011;19606;50.108;19.804;2022-10-16T04:59:20;46.75;;;24.20;;
33246;SDS011;19606;50.108;19.804;2022-10-16T05:01:47;41.05;;;25.02;;
33246;SDS011;19606;50.108;19.804;2022-10-16T05:04:13;42.60;;;23.48;;
33246;SDS011;19606;50.108;19.804;2022-10-16T05:06:40;40.90;;;23.17;;
33246;SDS011;19606;50.108;19.804;2022-10-16T05:09:06;40.17;;;24.17;;
33246;SDS011;19606;50.108;19.804;2022-10-16T05:11:32;36.47;;;22.55;;
33246;SDS011;19606;50.108;19.804;2022-10-16T05:13:58;39.13;;;22.45;;
33246;SDS011;19606;50.108;19.804;2022-10-16T05:16:24;40.35;;;21.77;;
33246;SDS011;19606;50.108;19.804;2022-10-16T05:18:53;41.47;;;23.45;;
33246;SDS011;19606;50.108;19.804;2022-10-16T05:21:20;39.85;;;23.02;;
33246;SDS011;19606;50.108;19.804;2022-10-16T05:23:46;40.85;;;22.80;;
33246;SDS011;19606;50.108;19.804;2022-10-16T05:26:12;44.72;;;23.92;;
33246;SDS011;19606;50.108;19.804;2022-10-16T05:28:38;47.15;;;25.00;;
33246;SDS011;19606;50.108;19.804;2022-10-16T05:31:08;41.67;;;24.23;;
33246;SDS011;19606;50.108;19.804;2022-10-16T05:33:34;44.47;;;24.40;;
33246;SDS011;19606;50.108;19.804;2022-10-16T05:36:00;49.97;;;26.90;;
33246;SDS011;19606;50.108;19.804;2022-10-16T05:38:27;52.92;;;29.45;;
33246;SDS011;19606;50.108;19.804;2022-10-16T05:40:53;51.42;;;30.52;;
33246;SDS011;19606;50.108;19.804;2022-10-16T05:43:20;54.55;;;30.13;;
33246;SDS011;19606;50.108;19.804;2022-10-16T05:46:00;56.42;;;29.50;;
33246;SDS011;19606;50.108;19.804;2022-10-16T05:48:26;54.70;;;30.30;;
33246;SDS011;19606;50.108;19.804;2022-10-16T05:50:56;47.40;;;29.25;;
33246;SDS011;19606;50.108;19.804;2022-10-16T05:53:22;43.75;;;27.65;;
33246;SDS011;19606;50.108;19.804;2022-10-16T05:55:54;39.00;;;25.40;;
33246;SDS011;19606;50.108;19.804;2022-10-16T05:58:20;43.40;;;27.13;;
33246;SDS011;19606;50.108;19.804;2022-10-16T06:00:53;44.28;;;26.38;;
33246;SDS011;19606;50.108;19.804;2022-10-16T06:03:19;39.75;;;22.55;;
33246;SDS011;19606;50.108;19.804;2022-10-16T06:05:45;40.17;;;24.30;;
33246;SDS011;19606;50.108;19.804;2022-10-16T06:08:11;47.05;;;25.35;;
33246;SDS011;19606;50.108;19.804;2022-10-16T06:10:37;47.80;;;25.98;;
33246;SDS011;19606;50.108;19.804;2022-10-16T06:13:03;50.25;;;24.80;;
33246;SDS011;19606;50.108;19.804;2022-10-16T06:15:29;47.75;;;24.70;;
33246;SDS011;19606;50.108;19.804;2022-10-16T06:17:55;41.92;;;23.20;;
33246;SDS011;19606;50.108;19.804;2022-10-16T06:20:21;42.88;;;24.00;;
33246;SDS011;19606;50.108;19.804;2022-10-16T06:22:48;42.05;;;23.38;;
33246;SDS011;19606;50.108;19.804;2022-10-16T06:25:13;48.30;;;27.27;;
33246;SDS011;19606;50.108;19.804;2022-10-16T06:27:40;53.72;;;26.58;;
33246;SDS011;19606;50.108;19.804;2022-10-16T06:30:06;46.10;;;27.15;;
33246;SDS011;19606;50.108;19.804;2022-10-16T06:32:33;42.13;;;24.50;;
33246;SDS011;19606;50.108;19.804;2022-10-16T06:35:01;46.53;;;24.92;;
33246;SDS011;19606;50.108;19.804;2022-10-16T06:37:27;45.05;;;23.60;;
33246;SDS011;19606;50.108;19.804;2022-10-16T06:39:53;38.33;;;21.00;;
33246;SDS011;19606;50.108;19.804;2022-10-16T06:42:19;38.25;;;24.83;;
33246;SDS011;19606;50.108;19.804;2022-10-16T06:44:45;34.55;;;23.27;;
33246;SDS011;19606;50.108;19.804;2022-10-16T06:47:11;34.05;;;23.85;;
33246;SDS011;19606;50.108;19.804;2022-10-16T06:49:37;32.95;;;22.63;;
33246;SDS011;19606;50.108;19.804;2022-10-16T06:52:03;34.13;;;23.27;;
33246;SDS011;19606;50.108;19.804;2022-10-16T06:54:29;36.03;;;24.48;;
33246;SDS011;19606;50.108;19.804;2022-10-16T06:56:55;41.78;;;25.08;;
33246;SDS011;19606;50.108;19.804;2022-10-16T06:59:21;39.58;;;25.98;;
33246;SDS011;19606;50.108;19.804;2022-10-16T07:01:47;39.42;;;26.85;;
33246;SDS011;19606;50.108;19.804;2022-10-16T07:04:13;40.58;;;25.05;;
33246;SDS011;19606;50.108;19.804;2022-10-16T07:06:39;38.38;;;25.25;;
33246;SDS011;19606;50.108;19.804;2022-10-16T07:09:07;36.78;;;24.85;;
33246;SDS011;19606;50.108;19.804;2022-10-16T07:11:36;40.42;;;26.52;;
33246;SDS011;19606;50.108;19.804;2022-10-16T07:14:03;34.92;;;25.88;;
33246;SDS011;19606;50.108;19.804;2022-10-16T07:16:30;41.65;;;25.90;;
33246;SDS011;19606;50.108;19.804;2022-10-16T07:18:59;38.33;;;26.08;;
33246;SDS011;19606;50.108;19.804;2022-10-16T07:21:26;39.78;;;24.83;;
33246;SDS011;19606;50.108;19.804;2022-10-16T07:23:56;31.30;;;23.35;;
33246;SDS011;19606;50.108;19.804;2022-10-16T07:26:23;36.33;;;23.38;;
33246;SDS011;19606;50.108;19.804;2022-10-16T07:28:49;36.67;;;23.85;;
33246;SDS011;19606;50.108;19.804;2022-10-16T07:31:16;34.83;;;24.15;;
33246;SDS011;19606;50.108;19.804;2022-10-16T07:33:42;35.47;;;25.48;;
33246;SDS011;19606;50.108;19.804;2022-10-16T07:36:10;33.20;;;25.10;;
33246;SDS011;19606;50.108;19.804;2022-10-16T07:38:36;34.70;;;25.75;;
33246;SDS011;19606;50.108;19.804;2022-10-16T07:41:04;38.42;;;25.83;;
33246;SDS011;19606;50.108;19.804;2022-10-16T07:43:31;34.75;;;24.92;;
33246;SDS011;19606;50.108;19.804;2022-10-16T07:45:58;32.30;;;22.98;;
33246;SDS011;19606;50.108;19.804;2022-10-16T07:48:29;53.63;;;37.28;;
33246;SDS011;19606;50.108;19.804;2022-10-16T07:51:03;34.78;;;24.38;;
33246;SDS011;19606;50.108;19.804;2022-10-16T07:53:29;27.58;;;20.15;;
33246;SDS011;19606;50.108;19.804;2022-10-16T07:55:57;24.00;;;18.27;;
33246;SDS011;19606;50.108;19.804;2022-10-16T07:58:23;24.63;;;16.90;;
33246;SDS011;19606;50.108;19.804;2022-10-16T08:00:49;26.20;;;17.52;;
33246;SDS011;19606;50.108;19.804;2022-10-16T08:03:15;25.38;;;16.55;;
33246;SDS011;19606;50.108;19.804;2022-10-16T08:05:41;23.42;;;16.77;;
33246;SDS011;19606;50.108;19.804;2022-10-16T08:08:11;24.85;;;18.48;;
33246;SDS011;19606;50.108;19.804;2022-10-16T08:10:37;22.30;;;16.73;;
33246;SDS011;19606;50.108;19.804;2022-10-16T08:13:03;24.23;;;17.55;;
33246;SDS011;19606;50.108;19.804;2022-10-16T08:15:29;25.17;;;17.70;;
33246;SDS011;19606;50.108;19.804;2022-10-16T08:17:59;24.13;;;15.55;;
33246;SDS011;19606;50.108;19.804;2022-10-16T08:20:25;23.77;;;16.63;;
33246;SDS011;19606;50.108;19.804;2022-10-16T08:22:51;18.67;;;15.20;;
33246;SDS011;19606;50.108;19.804;2022-10-16T08:25:18;19.98;;;14.38;;
33246;SDS011;19606;50.108;19.804;2022-10-16T08:27:44;17.67;;;12.90;;
33246;SDS011;19606;50.108;19.804;2022-10-16T08:30:11;16.20;;;13.13;;
33246;SDS011;19606;50.108;19.804;2022-10-16T08:32:37;22.50;;;14.10;;
33246;SDS011;19606;50.108;19.804;2022-10-16T08:35:03;16.30;;;13.38;;
33246;SDS011;19606;50.108;19.804;2022-10-16T08:37:30;17.92;;;13.65;;
33246;SDS011;19606;50.108;19.804;2022-10-16T08:39:56;19.13;;;13.95;;
33246;SDS011;19606;50.108;19.804;2022-10-16T08:45:15;19.55;;;13.85;;
33246;SDS011;19606;50.108;19.804;2022-10-16T08:50:38;12.93;;;9.75;;
33246;SDS011;19606;50.108;19.804;2022-10-16T08:53:05;9.57;;;7.85;;
33246;SDS011;19606;50.108;19.804;2022-10-16T08:58:23;12.13;;;10.25;;
33246;SDS011;19606;50.108;19.804;2022-10-16T09:00:53;13.70;;;9.43;;
33246;SDS011;19606;50.108;19.804;2022-10-16T09:06:35;11.15;;;8.48;;
33246;SDS011;19606;50.108;19.804;2022-10-16T09:12:07;9.85;;;8.90;;
33246;SDS011;19606;50.108;19.804;2022-10-16T09:22:27;11.35;;;8.45;;
33246;SDS011;19606;50.108;19.804;2022-10-16T09:24:54;14.93;;;8.90;;
33246;SDS011;19606;50.108;19.804;2022-10-16T09:27:24;12.13;;;8.88;;
33246;SDS011;19606;50.108;19.804;2022-10-16T09:29:51;13.38;;;9.48;;
33246;SDS011;19606;50.108;19.804;2022-10-16T09:32:18;13.60;;;9.38;;
33246;SDS011;19606;50.108;19.804;2022-10-16T09:34:52;13.57;;;8.63;;
33246;SDS011;19606;50.108;19.804;2022-10-16T09:37:21;12.70;;;9.85;;
33246;SDS011;19606;50.108;19.804;2022-10-16T09:39:48;14.48;;;9.63;;
33246;SDS011;19606;50.108;19.804;2022-10-16T09:42:36;14.57;;;8.73;;
33246;SDS011;19606;50.108;19.804;2022-10-16T09:45:01;12.00;;;9.27;;
33246;SDS011;19606;50.108;19.804;2022-10-16T09:47:28;11.80;;;9.57;;
33246;SDS011;19606;50.108;19.804;2022-10-16T09:52:22;14.13;;;9.40;;
33246;SDS011;19606;50.108;19.804;2022-10-16T09:54:52;13.70;;;9.55;;
33246;SDS011;19606;50.108;19.804;2022-10-16T09:57:19;11.00;;;9.40;;
33246;SDS011;19606;50.108;19.804;2022-10-16T09:59:49;12.52;;;9.02;;
33246;SDS011;19606;50.108;19.804;2022-10-16T10:02:22;9.35;;;8.05;;
33246;SDS011;19606;50.108;19.804;2022-10-16T10:04:51;12.77;;;8.75;;
33246;SDS011;19606;50.108;19.804;2022-10-16T10:07:23;12.63;;;10.00;;
33246;SDS011;19606;50.108;19.804;2022-10-16T10:09:51;12.57;;;9.23;;
33246;SDS011;19606;50.108;19.804;2022-10-16T10:12:18;10.85;;;8.15;;
33246;SDS011;19606;50.108;19.804;2022-10-16T10:14:45;11.57;;;8.15;;
33246;SDS011;19606;50.108;19.804;2022-10-16T10:17:23;12.57;;;8.73;;
33246;SDS011;19606;50.108;19.804;2022-10-16T10:23:01;13.40;;;9.45;;
33246;SDS011;19606;50.108;19.804;2022-10-16T10:30:09;18.27;;;9.10;;
33246;SDS011;19606;50.108;19.804;2022-10-16T10:32:49;13.50;;;9.32;;
33246;SDS011;19606;50.108;19.804;2022-10-16T10:35:29;15.27;;;10.00;;
33246;SDS011;19606;50.108;19.804;2022-10-16T10:48:52;14.07;;;9.38;;
33246;SDS011;19606;50.108;19.804;2022-10-16T10:51:19;11.02;;;8.85;;
33246;SDS011;19606;50.108;19.804;2022-10-16T10:56:23;11.07;;;9.35;;
33246;SDS011;19606;50.108;19.804;2022-10-16T11:06:52;15.82;;;9.02;;
33246;SDS011;19606;50.108;19.804;2022-10-16T11:09:36;11.27;;;8.70;;
33246;SDS011;19606;50.108;19.804;2022-10-16T11:12:18;14.00;;;8.32;;
33246;SDS011;19606;50.108;19.804;2022-10-16T11:17:22;15.55;;;8.77;;
33246;SDS011;19606;50.108;19.804;2022-10-16T11:22:42;10.68;;;8.77;;
33246;SDS011;19606;50.108;19.804;2022-10-16T11:25:13;19.05;;;8.82;;
33246;SDS011;19606;50.108;19.804;2022-10-16T11:30:19;9.50;;;7.90;;
33246;SDS011;19606;50.108;19.804;2022-10-16T11:32:54;11.70;;;8.40;;
33246;SDS011;19606;50.108;19.804;2022-10-16T11:38:17;14.63;;;9.48;;
33246;SDS011;19606;50.108;19.804;2022-10-16T11:40:45;11.93;;;8.68;;
33246;SDS011;19606;50.108;19.804;2022-10-16T11:43:15;14.07;;;9.40;;
33246;SDS011;19606;50.108;19.804;2022-10-16T11:45:43;11.43;;;9.07;;
33246;SDS011;19606;50.108;19.804;2022-10-16T11:48:35;11.02;;;8.63;;
33246;SDS011;19606;50.108;19.804;2022-10-16T11:53:57;11.52;;;8.13;;
33246;SDS011;19606;50.108;19.804;2022-10-16T11:56:25;10.55;;;8.65;;
33246;SDS011;19606;50.108;19.804;2022-10-16T11:58:56;12.85;;;10.15;;
33246;SDS011;19606;50.108;19.804;2022-10-16T12:06:31;12.63;;;7.63;;
33246;SDS011;19606;50.108;19.804;2022-10-16T12:08:59;11.50;;;7.07;;
33246;SDS011;19606;50.108;19.804;2022-10-16T12:14:02;8.07;;;6.18;;
33246;SDS011;19606;50.108;19.804;2022-10-16T12:16:29;9.20;;;7.03;;
33246;SDS011;19606;50.108;19.804;2022-10-16T12:19:11;11.55;;;7.80;;
33246;SDS011;19606;50.108;19.804;2022-10-16T12:21:38;7.57;;;6.78;;
33246;SDS011;19606;50.108;19.804;2022-10-16T12:24:04;10.88;;;6.65;;
33246;SDS011;19606;50.108;19.804;2022-10-16T12:26:36;8.70;;;6.63;;
33246;SDS011;19606;50.108;19.804;2022-10-16T12:29:13;11.93;;;6.70;;
33246;SDS011;19606;50.108;19.804;2022-10-16T12:31:44;9.35;;;6.05;;
33246;SDS011;19606;50.108;19.804;2022-10-16T12:34:20;8.82;;;6.38;;
33246;SDS011;19606;50.108;19.804;2022-10-16T12:36:47;9.18;;;6.43;;
33246;SDS011;19606;50.108;19.804;2022-10-16T12:39:20;9.65;;;6.43;;
33246;SDS011;19606;50.108;19.804;2022-10-16T12:41:46;13.65;;;7.63;;
33246;SDS011;19606;50.108;19.804;2022-10-16T12:44:25;9.80;;;6.93;;
33246;SDS011;19606;50.108;19.804;2022-10-16T12:46:51;9.05;;;6.47;;
33246;SDS011;19606;50.108;19.804;2022-10-16T12:49:22;10.18;;;7.80;;
33246;SDS011;19606;50.108;19.804;2022-10-16T12:51:50;12.73;;;7.28;;
33246;SDS011;19606;50.108;19.804;2022-10-16T12:54:17;8.98;;;6.75;;
33246;SDS011;19606;50.108;19.804;2022-10-16T13:04:36;12.05;;;6.90;;
33246;SDS011;19606;50.108;19.804;2022-10-16T13:12:12;9.40;;;7.28;;
33246;SDS011;19606;50.108;19.804;2022-10-16T13:14:48;10.00;;;6.32;;
33246;SDS011;19606;50.108;19.804;2022-10-16T13:22:23;13.60;;;7.10;;
33246;SDS011;19606;50.108;19.804;2022-10-16T13:27:28;9.60;;;6.95;;
33246;SDS011;19606;50.108;19.804;2022-10-16T13:30:02;13.63;;;7.38;;
33246;SDS011;19606;50.108;19.804;2022-10-16T13:32:35;9.82;;;6.63;;
33246;SDS011;19606;50.108;19.804;2022-10-16T13:35:01;8.70;;;6.22;;
33246;SDS011;19606;50.108;19.804;2022-10-16T13:37:29;7.38;;;6.28;;
33246;SDS011;19606;50.108;19.804;2022-10-16T13:42:41;8.38;;;5.75;;
33246;SDS011;19606;50.108;19.804;2022-10-16T13:45:16;8.77;;;6.20;;
33246;SDS011;19606;50.108;19.804;2022-10-16T13:47:43;10.85;;;6.78;;
33246;SDS011;19606;50.108;19.804;2022-10-16T13:50:13;10.30;;;5.68;;
33246;SDS011;19606;50.108;19.804;2022-10-16T13:52:39;7.35;;;6.28;;
33246;SDS011;19606;50.108;19.804;2022-10-16T13:55:12;10.95;;;6.63;;
33246;SDS011;19606;50.108;19.804;2022-10-16T13:57:38;8.13;;;5.60;;
33246;SDS011;19606;50.108;19.804;2022-10-16T14:00:18;12.80;;;6.40;;
33246;SDS011;19606;50.108;19.804;2022-10-16T14:02:44;7.60;;;5.78;;
33246;SDS011;19606;50.108;19.804;2022-10-16T14:05:13;10.32;;;6.53;;
33246;SDS011;19606;50.108;19.804;2022-10-16T14:07:39;7.82;;;6.22;;
33246;SDS011;19606;50.108;19.804;2022-10-16T14:10:07;10.82;;;6.80;;
33246;SDS011;19606;50.108;19.804;2022-10-16T14:12:43;9.38;;;7.13;;
33246;SDS011;19606;50.108;19.804;2022-10-16T14:15:16;10.95;;;6.07;;
33246;SDS011;19606;50.108;19.804;2022-10-16T14:17:43;9.35;;;6.72;;
33246;SDS011;19606;50.108;19.804;2022-10-16T14:20:15;10.90;;;8.20;;
33246;SDS011;19606;50.108;19.804;2022-10-16T14:22:41;11.60;;;7.07;;
33246;SDS011;19606;50.108;19.804;2022-10-16T14:27:55;9.95;;;7.18;;
33246;SDS011;19606;50.108;19.804;2022-10-16T14:30:22;9.77;;;7.07;;
33246;SDS011;19606;50.108;19.804;2022-10-16T14:35:38;13.18;;;7.00;;
33246;SDS011;19606;50.108;19.804;2022-10-16T14:38:05;9.75;;;7.57;;
33246;SDS011;19606;50.108;19.804;2022-10-16T14:40:33;12.35;;;7.07;;
33246;SDS011;19606;50.108;19.804;2022-10-16T14:43:00;10.07;;;7.25;;
33246;SDS011;19606;50.108;19.804;2022-10-16T14:45:30;11.45;;;7.43;;
33246;SDS011;19606;50.108;19.804;2022-10-16T14:47:58;13.55;;;8.18;;
33246;SDS011;19606;50.108;19.804;2022-10-16T14:50:24;11.25;;;8.18;;
33246;SDS011;19606;50.108;19.804;2022-10-16T14:52:50;17.70;;;7.88;;
33246;SDS011;19606;50.108;19.804;2022-10-16T14:55:16;12.50;;;7.93;;
33246;SDS011;19606;50.108;19.804;2022-10-16T14:57:43;13.60;;;8.43;;
33246;SDS011;19606;50.108;19.804;2022-10-16T15:00:17;13.10;;;8.18;;
33246;SDS011;19606;50.108;19.804;2022-10-16T15:02:43;10.93;;;7.95;;
33246;SDS011;19606;50.108;19.804;2022-10-16T15:07:44;12.10;;;8.80;;
33246;SDS011;19606;50.108;19.804;2022-10-16T15:10:11;13.57;;;9.40;;
33246;SDS011;19606;50.108;19.804;2022-10-16T15:12:38;35.45;;;17.27;;
33246;SDS011;19606;50.108;19.804;2022-10-16T15:15:49;24.77;;;13.95;;
33246;SDS011;19606;50.108;19.804;2022-10-16T15:17:51;20.73;;;12.68;;
33246;SDS011;19606;50.108;19.804;2022-10-16T15:20:19;18.63;;;10.77;;
33246;SDS011;19606;50.108;19.804;2022-10-16T15:22:45;21.30;;;11.23;;
33246;SDS011;19606;50.108;19.804;2022-10-16T15:27:56;18.10;;;11.15;;
33246;SDS011;19606;50.108;19.804;2022-10-16T15:30:22;19.55;;;11.40;;
33246;SDS011;19606;50.108;19.804;2022-10-16T15:32:48;28.05;;;15.30;;
33246;SDS011;19606;50.108;19.804;2022-10-16T15:35:14;16.48;;;10.85;;
33246;SDS011;19606;50.108;19.804;2022-10-16T15:37:41;20.02;;;11.90;;
33246;SDS011;19606;50.108;19.804;2022-10-16T15:40:08;20.52;;;11.98;;
33246;SDS011;19606;50.108;19.804;2022-10-16T15:42:34;17.25;;;11.68;;
33246;SDS011;19606;50.108;19.804;2022-10-16T15:45:00;17.45;;;12.32;;
33246;SDS011;19606;50.108;19.804;2022-10-16T15:47:26;17.60;;;10.73;;
33246;SDS011;19606;50.108;19.804;2022-10-16T15:49:52;17.45;;;11.32;;
33246;SDS011;19606;50.108;19.804;2022-10-16T15:52:18;20.35;;;11.98;;
33246;SDS011;19606;50.108;19.804;2022-10-16T15:54:44;16.40;;;10.75;;
33246;SDS011;19606;50.108;19.804;2022-10-16T15:57:10;14.80;;;10.05;;
33246;SDS011;19606;50.108;19.804;2022-10-16T15:59:36;13.80;;;9.48;;
33246;SDS011;19606;50.108;19.804;2022-10-16T16:02:02;22.38;;;11.70;;
33246;SDS011;19606;50.108;19.804;2022-10-16T16:04:31;19.58;;;11.52;;
33246;SDS011;19606;50.108;19.804;2022-10-16T16:06:57;20.60;;;11.25;;
33246;SDS011;19606;50.108;19.804;2022-10-16T16:09:22;19.70;;;11.00;;
33246;SDS011;19606;50.108;19.804;2022-10-16T16:11:48;16.27;;;9.93;;
33246;SDS011;19606;50.108;19.804;2022-10-16T16:14:16;14.18;;;9.02;;
33246;SDS011;19606;50.108;19.804;2022-10-16T16:16:42;16.15;;;9.73;;
33246;SDS011;19606;50.108;19.804;2022-10-16T16:19:08;21.30;;;11.93;;
33246;SDS011;19606;50.108;19.804;2022-10-16T16:21:34;16.65;;;10.88;;
33246;SDS011;19606;50.108;19.804;2022-10-16T16:24:00;20.13;;;10.15;;